sensor_id;sensor_type;location;lat;lon;timestamp;P1;durP1;ratioP1;P2;durP2;ratioP2
64242;SDS011;50573;51.512;5.386;2023-09-12T00:06:00;46.33;;;31.70;;
64242;SDS011;50573;51.512;5.386;2023-09-12T00:16:04;54.58;;;33.28;;
64242;SDS011;50573;51.512;5.386;2023-09-12T00:26:09;53.53;;;32.93;;
64242;SDS011;50573;51.512;5.386;2023-09-12T00:36:13;48.08;;;31.60;;
64242;SDS011;50573;51.512;5.386;2023-09-12T00:46:18;48.70;;;33.42;;
64242;SDS011;50573;51.512;5.386;2023-09-12T00:56:23;47.60;;;32.78;;
64242;SDS011;50573;51.512;5.386;2023-09-12T01:06:28;52.20;;;33.90;;
64242;SDS011;50573;51.512;5.386;2023-09-12T01:16:32;51.95;;;34.95;;
64242;SDS011;50573;51.512;5.386;2023-09-12T01:26:41;50.80;;;34.80;;
64242;SDS011;50573;51.512;5.386;2023-09-12T01:36:53;47.25;;;32.95;;
64242;SDS011;50573;51.512;5.386;2023-09-12T01:46:57;48.13;;;32.35;;
64242;SDS011;50573;51.512;5.386;2023-09-12T01:57:04;55.35;;;35.08;;
64242;SDS011;50573;51.512;5.386;2023-09-12T02:07:08;44.75;;;29.58;;
64242;SDS011;50573;51.512;5.386;2023-09-12T02:17:12;38.78;;;26.88;;
64242;SDS011;50573;51.512;5.386;2023-09-12T02:27:15;34.08;;;25.45;;
64242;SDS011;50573;51.512;5.386;2023-09-12T02:37:20;31.43;;;24.87;;
64242;SDS011;50573;51.512;5.386;2023-09-12T02:47:23;28.45;;;22.30;;
64242;SDS011;50573;51.512;5.386;2023-09-12T02:57:28;32.08;;;23.40;;
64242;SDS011;50573;51.512;5.386;2023-09-12T03:07:31;45.15;;;27.95;;
64242;SDS011;50573;51.512;5.386;2023-09-12T03:17:36;39.90;;;26.75;;
64242;SDS011;50573;51.512;5.386;2023-09-12T03:27:39;38.03;;;27.38;;
64242;SDS011;50573;51.512;5.386;2023-09-12T03:37:44;51.65;;;32.33;;
64242;SDS011;50573;51.512;5.386;2023-09-12T03:47:47;50.80;;;31.83;;
64242;SDS011;50573;51.512;5.386;2023-09-12T03:57:52;42.95;;;29.35;;
64242;SDS011;50573;51.512;5.386;2023-09-12T04:07:55;38.30;;;26.13;;
64242;SDS011;50573;51.512;5.386;2023-09-12T04:18:00;34.63;;;20.23;;
64242;SDS011;50573;51.512;5.386;2023-09-12T04:28:04;26.98;;;20.17;;
64242;SDS011;50573;51.512;5.386;2023-09-12T04:38:08;39.17;;;26.30;;
64242;SDS011;50573;51.512;5.386;2023-09-12T04:48:12;34.47;;;24.02;;
64242;SDS011;50573;51.512;5.386;2023-09-12T04:58:17;39.33;;;26.03;;
64242;SDS011;50573;51.512;5.386;2023-09-12T05:08:20;47.75;;;30.65;;
64242;SDS011;50573;51.512;5.386;2023-09-12T05:18:25;45.80;;;30.00;;
64242;SDS011;50573;51.512;5.386;2023-09-12T05:28:29;51.58;;;33.67;;
64242;SDS011;50573;51.512;5.386;2023-09-12T05:38:34;61.80;;;33.40;;
64242;SDS011;50573;51.512;5.386;2023-09-12T05:48:37;50.90;;;30.55;;
64242;SDS011;50573;51.512;5.386;2023-09-12T05:58:41;33.55;;;21.73;;
64242;SDS011;50573;51.512;5.386;2023-09-12T06:08:45;49.25;;;30.98;;
64242;SDS011;50573;51.512;5.386;2023-09-12T06:18:50;51.00;;;31.58;;
64242;SDS011;50573;51.512;5.386;2023-09-12T06:28:55;53.17;;;31.35;;
64242;SDS011;50573;51.512;5.386;2023-09-12T06:38:59;44.75;;;27.35;;
64242;SDS011;50573;51.512;5.386;2023-09-12T06:49:03;47.85;;;29.48;;
64242;SDS011;50573;51.512;5.386;2023-09-12T06:59:07;49.70;;;31.20;;
64242;SDS011;50573;51.512;5.386;2023-09-12T07:09:11;38.40;;;27.10;;
64242;SDS011;50573;51.512;5.386;2023-09-12T07:19:17;48.50;;;31.38;;
64242;SDS011;50573;51.512;5.386;2023-09-12T07:29:20;46.20;;;30.55;;
64242;SDS011;50573;51.512;5.386;2023-09-12T07:39:25;59.58;;;37.70;;
64242;SDS011;50573;51.512;5.386;2023-09-12T07:49:28;44.85;;;30.60;;
64242;SDS011;50573;51.512;5.386;2023-09-12T07:59:32;41.27;;;28.20;;
64242;SDS011;50573;51.512;5.386;2023-09-12T08:09:49;34.45;;;25.25;;
64242;SDS011;50573;51.512;5.386;2023-09-12T08:19:54;36.50;;;25.55;;
64242;SDS011;50573;51.512;5.386;2023-09-12T08:29:58;31.50;;;23.17;;
64242;SDS011;50573;51.512;5.386;2023-09-12T08:40:03;28.33;;;22.30;;
64242;SDS011;50573;51.512;5.386;2023-09-12T08:50:14;26.15;;;19.02;;
64242;SDS011;50573;51.512;5.386;2023-09-12T09:00:20;20.50;;;16.17;;
64242;SDS011;50573;51.512;5.386;2023-09-12T09:10:26;18.33;;;13.50;;
64242;SDS011;50573;51.512;5.386;2023-09-12T09:20:52;31.00;;;22.05;;
64242;SDS011;50573;51.512;5.386;2023-09-12T09:30:55;38.50;;;25.75;;
64242;SDS011;50573;51.512;5.386;2023-09-12T09:40:59;44.88;;;29.92;;
64242;SDS011;50573;51.512;5.386;2023-09-12T09:51:03;47.45;;;31.35;;
64242;SDS011;50573;51.512;5.386;2023-09-12T10:01:19;47.83;;;32.88;;
64242;SDS011;50573;51.512;5.386;2023-09-12T10:11:23;50.70;;;35.15;;
64242;SDS011;50573;51.512;5.386;2023-09-12T10:21:31;50.75;;;33.85;;
64242;SDS011;50573;51.512;5.386;2023-09-12T10:31:36;49.53;;;32.75;;
64242;SDS011;50573;51.512;5.386;2023-09-12T10:41:45;42.72;;;28.92;;
64242;SDS011;50573;51.512;5.386;2023-09-12T10:51:52;58.90;;;42.53;;
64242;SDS011;50573;51.512;5.386;2023-09-12T11:12:36;55.30;;;40.40;;
64242;SDS011;50573;51.512;5.386;2023-09-12T11:22:41;46.58;;;32.40;;
64242;SDS011;50573;51.512;5.386;2023-09-12T11:32:46;39.90;;;29.13;;
64242;SDS011;50573;51.512;5.386;2023-09-12T11:42:53;41.80;;;26.15;;
64242;SDS011;50573;51.512;5.386;2023-09-12T11:52:59;35.63;;;24.17;;
64242;SDS011;50573;51.512;5.386;2023-09-12T12:03:04;33.40;;;23.50;;
64242;SDS011;50573;51.512;5.386;2023-09-12T12:13:10;27.92;;;22.42;;
64242;SDS011;50573;51.512;5.386;2023-09-12T12:23:16;26.50;;;20.55;;
64242;SDS011;50573;51.512;5.386;2023-09-12T12:33:19;24.23;;;16.95;;
64242;SDS011;50573;51.512;5.386;2023-09-12T12:43:43;29.75;;;22.70;;
64242;SDS011;50573;51.512;5.386;2023-09-12T12:53:47;33.97;;;23.40;;
64242;SDS011;50573;51.512;5.386;2023-09-12T13:03:56;28.73;;;21.58;;
64242;SDS011;50573;51.512;5.386;2023-09-12T13:13:59;26.35;;;18.75;;
64242;SDS011;50573;51.512;5.386;2023-09-12T13:24:04;20.73;;;15.98;;
64242;SDS011;50573;51.512;5.386;2023-09-12T13:34:07;17.25;;;10.30;;
64242;SDS011;50573;51.512;5.386;2023-09-12T13:44:15;13.45;;;10.30;;
64242;SDS011;50573;51.512;5.386;2023-09-12T13:54:19;16.45;;;13.25;;
64242;SDS011;50573;51.512;5.386;2023-09-12T14:04:33;13.70;;;10.52;;
64242;SDS011;50573;51.512;5.386;2023-09-12T14:14:40;16.08;;;12.38;;
64242;SDS011;50573;51.512;5.386;2023-09-12T14:24:51;13.18;;;7.97;;
64242;SDS011;50573;51.512;5.386;2023-09-12T14:34:55;10.15;;;7.85;;
64242;SDS011;50573;51.512;5.386;2023-09-12T14:45:08;12.45;;;8.93;;
64242;SDS011;50573;51.512;5.386;2023-09-12T14:55:12;15.02;;;9.35;;
64242;SDS011;50573;51.512;5.386;2023-09-12T15:05:18;14.93;;;10.75;;
64242;SDS011;50573;51.512;5.386;2023-09-12T15:15:22;14.68;;;11.30;;
64242;SDS011;50573;51.512;5.386;2023-09-12T15:25:39;12.57;;;9.32;;
64242;SDS011;50573;51.512;5.386;2023-09-12T15:35:46;12.00;;;9.45;;
64242;SDS011;50573;51.512;5.386;2023-09-12T15:45:59;11.98;;;9.80;;
64242;SDS011;50573;51.512;5.386;2023-09-12T15:56:05;16.10;;;11.45;;
64242;SDS011;50573;51.512;5.386;2023-09-12T16:06:12;16.60;;;11.10;;
64242;SDS011;50573;51.512;5.386;2023-09-12T16:16:20;13.55;;;11.40;;
64242;SDS011;50573;51.512;5.386;2023-09-12T16:26:31;17.35;;;11.05;;
64242;SDS011;50573;51.512;5.386;2023-09-12T16:36:36;13.32;;;11.45;;
64242;SDS011;50573;51.512;5.386;2023-09-12T16:46:42;17.13;;;13.50;;
64242;SDS011;50573;51.512;5.386;2023-09-12T16:56:54;20.95;;;11.48;;
64242;SDS011;50573;51.512;5.386;2023-09-12T17:06:59;18.17;;;11.95;;
64242;SDS011;50573;51.512;5.386;2023-09-12T17:17:03;24.30;;;14.40;;
64242;SDS011;50573;51.512;5.386;2023-09-12T17:27:08;21.05;;;14.90;;
64242;SDS011;50573;51.512;5.386;2023-09-12T17:37:11;20.45;;;14.05;;
64242;SDS011;50573;51.512;5.386;2023-09-12T17:57:20;28.65;;;18.70;;
64242;SDS011;50573;51.512;5.386;2023-09-12T18:07:25;33.60;;;20.35;;
64242;SDS011;50573;51.512;5.386;2023-09-12T18:17:28;37.67;;;25.27;;
64242;SDS011;50573;51.512;5.386;2023-09-12T18:27:32;37.30;;;25.77;;
64242;SDS011;50573;51.512;5.386;2023-09-12T18:37:35;42.20;;;28.75;;
64242;SDS011;50573;51.512;5.386;2023-09-12T18:47:40;49.17;;;31.43;;
64242;SDS011;50573;51.512;5.386;2023-09-12T18:57:43;50.65;;;33.05;;
64242;SDS011;50573;51.512;5.386;2023-09-12T19:07:49;54.47;;;34.30;;
64242;SDS011;50573;51.512;5.386;2023-09-12T19:17:52;44.40;;;30.35;;
64242;SDS011;50573;51.512;5.386;2023-09-12T19:27:56;57.10;;;36.53;;
64242;SDS011;50573;51.512;5.386;2023-09-12T19:37:59;61.08;;;38.05;;
64242;SDS011;50573;51.512;5.386;2023-09-12T19:48:05;68.57;;;41.53;;
64242;SDS011;50573;51.512;5.386;2023-09-12T19:58:12;59.88;;;39.03;;
64242;SDS011;50573;51.512;5.386;2023-09-12T20:08:17;69.43;;;41.83;;
64242;SDS011;50573;51.512;5.386;2023-09-12T20:18:19;67.38;;;40.47;;
64242;SDS011;50573;51.512;5.386;2023-09-12T20:28:24;55.07;;;32.30;;
64242;SDS011;50573;51.512;5.386;2023-09-12T20:38:28;39.35;;;27.08;;
64242;SDS011;50573;51.512;5.386;2023-09-12T20:48:32;44.13;;;28.07;;
64242;SDS011;50573;51.512;5.386;2023-09-12T20:58:36;40.75;;;29.33;;
64242;SDS011;50573;51.512;5.386;2023-09-12T21:08:41;47.53;;;31.53;;
64242;SDS011;50573;51.512;5.386;2023-09-12T21:18:44;42.78;;;29.65;;
64242;SDS011;50573;51.512;5.386;2023-09-12T21:28:50;42.38;;;28.55;;
64242;SDS011;50573;51.512;5.386;2023-09-12T21:38:53;47.20;;;31.33;;
64242;SDS011;50573;51.512;5.386;2023-09-12T21:48:57;39.20;;;28.50;;
64242;SDS011;50573;51.512;5.386;2023-09-12T21:59:00;38.47;;;27.02;;
64242;SDS011;50573;51.512;5.386;2023-09-12T22:09:04;37.27;;;27.37;;
64242;SDS011;50573;51.512;5.386;2023-09-12T22:19:08;37.35;;;26.30;;
64242;SDS011;50573;51.512;5.386;2023-09-12T22:29:13;39.13;;;25.73;;
64242;SDS011;50573;51.512;5.386;2023-09-12T22:39:16;37.88;;;27.83;;
64242;SDS011;50573;51.512;5.386;2023-09-12T22:49:20;48.50;;;33.17;;
64242;SDS011;50573;51.512;5.386;2023-09-12T22:59:23;46.45;;;32.05;;
64242;SDS011;50573;51.512;5.386;2023-09-12T23:09:28;46.55;;;31.88;;
64242;SDS011;50573;51.512;5.386;2023-09-12T23:19:31;60.05;;;38.90;;
64242;SDS011;50573;51.512;5.386;2023-09-12T23:29:35;66.38;;;40.97;;
64242;SDS011;50573;51.512;5.386;2023-09-12T23:39:39;65.85;;;38.97;;
64242;SDS011;50573;51.512;5.386;2023-09-12T23:49:43;74.47;;;42.08;;
64242;SDS011;50573;51.512;5.386;2023-09-12T23:59:46;70.32;;;43.17;;
